Orbital elements of COSMOS 2251 DEB
| Launched | 15 June 1993 |
| Flight ended | – |
| Launch site | Plesetsk Missile and Space Complex, Russia |
| Owner | Commonwealth of Independent States (former USSR) |
| NORAD ID | 37483 |
| Date fetched |
Epoch osculation |
Inc. [°] |
Ecc. | RA asc node [hr] |
Arg Peri. [°] |
Mean anom [°] |
Mean motion [rev/day] |
Abs. mag |
| Date fetched |
Epoch osculation |
Inc. [°] |
Ecc. | RA asc node [hr] |
Arg Peri. [°] |
Mean anom [°] |
Mean motion [rev/day] |
Abs. mag |
| 2026 May 03 17:57 | 2026 Apr 29 14:36:26 | 73.9738 | 0.00918 | 16.4035 | 61.0503 | 299.9816 | 14.43806 | – |
| 2026 May 02 17:57 | 2026 Apr 29 14:36:26 | 73.9738 | 0.00918 | 16.4035 | 61.0503 | 299.9816 | 14.43806 | – |
| 2026 May 01 17:56 | 2026 Apr 29 14:36:26 | 73.9738 | 0.00918 | 16.4035 | 61.0503 | 299.9816 | 14.43806 | – |
| 2026 Apr 30 17:56 | 2026 Apr 29 14:36:26 | 73.9738 | 0.00918 | 16.4035 | 61.0503 | 299.9816 | 14.43806 | – |
| 2026 Apr 29 17:57 | 2026 Apr 22 03:00:33 | 73.9731 | 0.00917 | 17.3347 | 76.9476 | 299.9816 | 14.43806 | – |
| 2026 Apr 28 17:56 | 2026 Apr 22 03:00:33 | 73.9731 | 0.00917 | 17.3347 | 76.9476 | 299.9816 | 14.43806 | – |
| 2026 Apr 27 17:58 | 2026 Apr 22 03:00:33 | 73.9731 | 0.00917 | 17.3347 | 76.9476 | 299.9816 | 14.43806 | – |
| 2026 Apr 26 17:58 | 2026 Apr 22 03:00:33 | 73.9731 | 0.00917 | 17.3347 | 76.9476 | 299.9816 | 14.43806 | – |
| 2026 Apr 25 17:58 | 2026 Apr 22 03:00:33 | 73.9731 | 0.00917 | 17.3347 | 76.9476 | 299.9816 | 14.43806 | – |
| 2026 Apr 24 17:59 | 2026 Apr 22 03:00:33 | 73.9731 | 0.00917 | 17.3347 | 76.9476 | 299.9816 | 14.43806 | – |
| 2026 Apr 23 17:57 | 2026 Apr 19 03:30:08 | 73.9724 | 0.00917 | 17.7054 | 83.2881 | 299.9816 | 14.43806 | – |
| 2026 Apr 22 17:57 | 2026 Apr 19 03:30:08 | 73.9724 | 0.00917 | 17.7054 | 83.2881 | 299.9816 | 14.43806 | – |
| 2026 Apr 21 17:57 | 2026 Apr 19 03:30:08 | 73.9724 | 0.00917 | 17.7054 | 83.2881 | 299.9816 | 14.43806 | – |
| 2026 Apr 20 17:57 | 2026 Apr 19 03:30:08 | 73.9724 | 0.00917 | 17.7054 | 83.2881 | 299.9816 | 14.43806 | – |
| 2026 Apr 19 17:58 | 2026 Apr 19 03:30:08 | 73.9724 | 0.00917 | 17.7054 | 83.2881 | 299.9816 | 14.43806 | – |
| 2026 Apr 18 17:56 | 2026 Apr 13 04:29:15 | 73.9723 | 0.00918 | 18.4469 | 95.9267 | 299.9816 | 14.43806 | – |
| 2026 Apr 16 17:57 | 2026 Apr 13 04:29:15 | 73.9723 | 0.00918 | 18.4469 | 95.9267 | 299.9816 | 14.43806 | – |
| 2026 Apr 14 17:57 | 2026 Apr 13 04:29:15 | 73.9723 | 0.00918 | 18.4469 | 95.9267 | 299.9816 | 14.43806 | – |
| 2026 Apr 13 17:57 | 2026 Apr 13 04:29:15 | 73.9723 | 0.00918 | 18.4469 | 95.9267 | 299.9816 | 14.43806 | – |
| 2026 Apr 12 17:57 | 2026 Apr 06 19:29:38 | 73.9722 | 0.00919 | 19.2402 | 109.4271 | 299.9816 | 14.43806 | – |
| 2026 Apr 11 17:57 | 2026 Apr 06 19:29:38 | 73.9722 | 0.00919 | 19.2402 | 109.4271 | 299.9816 | 14.43806 | – |
| 2026 Apr 10 17:58 | 2026 Apr 06 19:29:38 | 73.9722 | 0.00919 | 19.2402 | 109.4271 | 299.9816 | 14.43806 | – |
| 2026 Apr 09 18:01 | 2026 Apr 06 19:29:38 | 73.9722 | 0.00919 | 19.2402 | 109.4271 | 299.9816 | 14.43806 | – |
| 2026 Apr 08 17:57 | 2026 Apr 06 19:29:38 | 73.9722 | 0.00919 | 19.2402 | 109.4271 | 299.9816 | 14.43806 | – |
| 2026 Apr 07 17:57 | 2026 Apr 01 19:45:32 | 73.9732 | 0.00920 | 19.8610 | 120.0092 | 299.9816 | 14.43806 | – |
| 2026 Apr 06 17:57 | 2026 Apr 01 19:45:32 | 73.9732 | 0.00920 | 19.8610 | 120.0092 | 299.9816 | 14.43806 | – |